• Join FlightAware (Why Join?)
  • Login
  • US Flag 
03:51PM EDT


 

Airport Tracker/Info


-or-


 

Live Flight TrackerFlight Track Log ✈ EGF4090 ✈ 03-May-2013 ✈ KORD - KLIT

Flight Track Log - Related Links

Times and Time Zones

All times are in EDT time to prevent confusion due to time zone crossing. See the EGF4090 flight status page for this flight to view local times or setup timezone preferences in your user account.

Time Position Orientation Groundspeed Altitude Reporting Facility
EDT Latitude Longitude Course Direction KTS MPH feet Rate Location/Type
11:22PM 41.9667 -87.8667 180° South 176 203 3,000  Level Chicago TRACON
11:23PM 41.8113 -88.0201 191° South  Level Estimated
11:23PM 41.9167 -87.8167 143° Southeast 219 252 5,300  Level Chicago TRACON
11:23PM 41.8667 -87.8167 180° South 249 287 7,100 2,160 Climbing Chicago TRACON
11:24PM 41.7260 -88.0766 192° South  Level Estimated
11:25PM 41.6406 -88.0207 154° Southeast  Level FlightAware Approximate
11:26PM 41.5558 -88.0781 189° South  Level Estimated
11:26PM 41.7142 -87.8922 200° South 276 318 12,100  Level Chicago Center
11:27PM 41.4709 -88.1355 180° South  Level Estimated
11:27PM 41.6372 -87.9275 199° South 291 335 14,400  Level Chicago Center
11:28PM 41.5417 -87.9700 198° South 300 345 16,100 1,320 Climbing Chicago Center
11:29PM 41.4508 -88.0114 199° South 336 387 17,100 1,020 Climbing Chicago Center
11:30PM 41.3586 -88.0508 198° South 349 402 18,200 1,020 Climbing Chicago Center
11:31PM 41.2731 -88.0942 201° Southwest 367 422 19,200 1,080 Climbing Chicago Center
11:32PM 41.1811 -88.1608 209° Southwest 375 432 20,400 1,140 Climbing Chicago Center
11:33PM 41.0658 -88.2417 208° Southwest 387 445 21,600 1,020 Climbing Chicago Center
11:34PM 40.9683 -88.3083 207° Southwest 394 453 22,500 900 Climbing Chicago Center
11:35PM 40.8697 -88.3778 208° Southwest 401 461 23,500 960 Climbing Chicago Center
11:36PM 40.7719 -88.4450 208° Southwest 399 459 24,500 960 Climbing Chicago Center
11:37PM 40.6725 -88.5122 207° Southwest 402 463 25,500 960 Climbing Chicago Center
11:38PM 40.5747 -88.5806 208° Southwest 402 463 26,500 900 Climbing Chicago Center
11:39PM 40.4750 -88.6475 207° Southwest 404 465 27,400 900 Climbing Chicago Center
11:40PM 40.3781 -88.7131 207° Southwest 406 467 28,400 960 Climbing Chicago Center
11:41PM 40.2772 -88.7800 207° Southwest 405 466 29,400 900 Climbing Chicago Center
11:42PM 40.1767 -88.8481 207° Southwest 405 466 30,300 1,020 Climbing Chicago Center
11:43PM 40.0722 -88.9178 207° Southwest 409 471 31,400 1,080 Climbing Kansas City Center
11:44PM 39.9669 -88.9878 207° Southwest 418 481 32,400 1,440 Climbing Kansas City Center
11:45PM 39.8653 -89.0567 207° Southwest 414 476 34,400 1,680 Climbing Kansas City Center
11:46PM 39.7686 -89.1233 208° Southwest 399 459 35,900 780 Climbing Kansas City Center
11:47PM 39.6708 -89.1858 206° Southwest 393 452 36,000  Climbing Kansas City Center
11:48PM 39.5686 -89.2533 207° Southwest 405 466 36,000  Level Kansas City Center
11:49PM 39.4617 -89.3239 207° Southwest 404 465 36,000  Level Kansas City Center
11:50PM 39.3611 -89.3892 207° Southwest 403 464 36,000  Level Kansas City Center
11:51PM 39.2614 -89.4561 207° Southwest 404 465 36,000  Level Kansas City Center
11:52PM 39.1547 -89.5253 207° Southwest 404 465 36,000  Level Kansas City Center
11:53PM 39.0567 -89.5894 207° Southwest 397 457 36,000  Level Kansas City Center
11:54PM 38.9481 -89.6594 207° Southwest 408 470 36,000  Level Kansas City Center
11:55PM 38.8594 -89.7156 206° Southwest 410 472 36,000  Level Kansas City Center
11:56PM 38.7603 -89.7800 207° Southwest 402 463 36,000  Level Kansas City Center
11:57PM 38.6625 -89.8431 207° Southwest 395 455 36,000  Level Kansas City Center
11:58PM 38.5647 -89.9056 207° Southwest 391 450 36,000  Level Kansas City Center
11:59PM 38.4667 -89.9689 207° Southwest 392 451 36,000  Level Kansas City Center
12:00AM 38.3683 -90.0314 206° Southwest 392 451 36,000  Level Kansas City Center
12:01AM 38.2667 -90.0944 206° Southwest 400 460 36,000  Level Kansas City Center
12:02AM 38.1658 -90.1581 206° Southwest 403 464 36,000  Level Kansas City Center
12:03AM 38.0667 -90.2222 207° Southwest 399 459 36,000  Level Kansas City Center
12:04AM 37.9464 -90.2975 206° Southwest 402 463 36,000  Level Kansas City Center
12:05AM 37.8464 -90.3614 207° Southwest 402 463 36,000  Level Kansas City Center
12:06AM 37.7447 -90.4233 206° Southwest 405 466 36,000  Level Kansas City Center
12:07AM 37.6433 -90.4875 207° Southwest 407 468 36,000  Level Kansas City Center
12:08AM 37.5419 -90.5517 207° Southwest 407 468 36,000  Level Kansas City Center
12:09AM 37.4408 -90.6139 206° Southwest 407 468 36,000  Level Kansas City Center
12:10AM 37.3353 -90.6792 206° Southwest 404 465 36,000  Level Kansas City Center
12:11AM 37.2669 -90.7244 208° Southwest 410 472 36,000  Level Memphis Center
12:12AM 37.1917 -90.7708 206° Southwest 405 466 36,000  Level Memphis Center
12:13AM 37.0811 -90.8328 204° Southwest 402 463 36,000 -180 Level Memphis Center
12:14AM 36.9744 -90.9047 208° Southwest 413 475 35,700 -660 Descending Memphis Center
12:15AM 36.8722 -90.9639 205° Southwest 413 475 34,700 -900 Descending Memphis Center
12:16AM 36.7717 -91.0253 206° Southwest 405 466 34,000 -360 Descending Memphis Center
12:17AM 36.6736 -91.0839 206° Southwest 395 455 34,000  Level Memphis Center
12:18AM 36.5772 -91.1425 206° Southwest 390 449 34,000  Level Memphis Center
12:19AM 36.4769 -91.2008 205° Southwest 390 449 34,000  Level Memphis Center
12:20AM 36.3806 -91.2592 206° Southwest 390 449 34,000  Level Memphis Center
12:21AM 36.2800 -91.3197 206° Southwest 396 456 34,000 960 Level Memphis Center
12:22AM 36.1753 -91.3803 205° Southwest 401 461 36,000 -2,340 Climbing Memphis Center
12:23AM 36.0769 -91.4381 205° Southwest 401 461 29,400 -4,560 Descending Memphis Center
12:24AM 35.9742 -91.4983 205° Southwest 406 467 26,900 -2,400 Descending Memphis Center
12:25AM 35.8861 -91.5561 208° Southwest 393 452 24,600 -2,400 Descending Memphis Center
12:26AM 35.7917 -91.6136 206° Southwest 382 440 22,100 -2,520 Descending Memphis Center
12:27AM 35.6994 -91.6658 205° Southwest 377 434 19,600 -2,340 Descending Memphis Center
12:28AM 35.6092 -91.7181 205° Southwest 372 428 17,500 -2,160 Descending Memphis Center
12:29AM 35.4978 -91.7850 206° Southwest 361 415 15,100 -1,980 Descending Memphis Center
12:30AM 35.4286 -91.8222 204° Southwest 364 419 13,600 -1,860 Descending Memphis Center
12:31AM 35.3508 -91.8667 205° Southwest 349 402 11,600 -1,800 Descending Memphis Center
12:32AM 35.2794 -91.9086 206° Southwest 314 361 10,000 -1,320 Descending Memphis Center
12:33AM 35.2142 -91.9481 206° Southwest 279 321 9,000 -1,080 Descending Memphis Center
12:34AM 35.1303 -91.9947 204° Southwest 263 303 7,700 -960 Descending Memphis Center
12:35AM 35.0861 -92.0217 207° Southwest 258 297 7,100 -540 Descending Memphis Center
12:36AM 35.0231 -92.0586 206° Southwest 258 297 6,800 -960 Descending Memphis Center
12:37AM 34.9639 -92.0953 207° Southwest 258 297 5,200 -1,620 Descending Memphis Center
12:38AM 34.9050 -92.1347 209° Southwest 248 285 3,600 -1,260 Descending Memphis Center
12:39AM 34.8419 -92.1739 207° Southwest 248 285 2,700 -840 Descending Memphis Center
12:40AM 34.7931 -92.2283 222° Southwest 248 285 2,000 -300 Descending Memphis Center
12:41AM 34.7486 -92.2781 223° Southwest 240 276 2,100  Climbing Memphis Center
12:42AM 34.6956 -92.3350 221° Southwest 181 208 2,000 -180 Descending Memphis Center
12:43AM 34.6856 -92.2967 108° East 112 129 1,800 -540 Descending Memphis Center
12:44AM 34.7008 -92.2619 62° Northeast 62 71 1,000 -840 Descending Memphis Center